sensor_id;sensor_type;location;lat;lon;timestamp;pressure;altitude;pressure_sealevel;temperature;humidity
56992;BME280;42885;49.754;18.636;2023-07-30T00:02:04;97720.70;;;22.16;100.00
56992;BME280;42885;49.754;18.636;2023-07-30T00:04:38;97738.88;;;21.93;100.00
56992;BME280;42885;49.754;18.636;2023-07-30T00:07:12;97745.08;;;22.09;100.00
56992;BME280;42885;49.754;18.636;2023-07-30T00:09:43;97735.90;;;22.31;100.00
56992;BME280;42885;49.754;18.636;2023-07-30T00:12:20;97717.33;;;22.37;100.00
56992;BME280;42885;49.754;18.636;2023-07-30T00:14:59;97734.05;;;22.65;100.00
56992;BME280;42885;49.754;18.636;2023-07-30T00:17:30;97735.67;;;22.71;100.00
56992;BME280;42885;49.754;18.636;2023-07-30T00:20:08;97744.14;;;22.74;100.00
56992;BME280;42885;49.754;18.636;2023-07-30T00:22:45;97743.73;;;22.81;100.00
56992;BME280;42885;49.754;18.636;2023-07-30T00:25:16;97745.88;;;22.97;100.00
56992;BME280;42885;49.754;18.636;2023-07-30T00:27:47;97742.47;;;22.88;100.00
56992;BME280;42885;49.754;18.636;2023-07-30T00:30:18;97740.50;;;22.86;100.00
56992;BME280;42885;49.754;18.636;2023-07-30T00:32:58;97738.55;;;22.95;100.00
56992;BME280;42885;49.754;18.636;2023-07-30T00:35:32;97734.65;;;23.02;100.00
56992;BME280;42885;49.754;18.636;2023-07-30T00:38:03;97739.50;;;23.13;100.00
56992;BME280;42885;49.754;18.636;2023-07-30T00:40:41;97736.69;;;23.10;100.00
56992;BME280;42885;49.754;18.636;2023-07-30T00:43:18;97731.00;;;23.14;100.00
56992;BME280;42885;49.754;18.636;2023-07-30T00:45:50;97736.79;;;23.17;100.00
56992;BME280;42885;49.754;18.636;2023-07-30T00:48:20;97734.61;;;22.91;100.00
56992;BME280;42885;49.754;18.636;2023-07-30T00:50:56;97740.58;;;22.93;100.00
56992;BME280;42885;49.754;18.636;2023-07-30T00:53:31;97739.70;;;22.96;100.00
56992;BME280;42885;49.754;18.636;2023-07-30T00:56:02;97741.98;;;22.89;100.00
56992;BME280;42885;49.754;18.636;2023-07-30T00:58:44;97749.98;;;22.89;100.00
56992;BME280;42885;49.754;18.636;2023-07-30T01:01:16;97744.41;;;22.94;100.00
56992;BME280;42885;49.754;18.636;2023-07-30T01:03:48;97746.80;;;22.74;100.00
56992;BME280;42885;49.754;18.636;2023-07-30T01:06:20;97744.23;;;22.66;100.00
56992;BME280;42885;49.754;18.636;2023-07-30T01:08:54;97736.23;;;22.66;100.00
56992;BME280;42885;49.754;18.636;2023-07-30T01:11:44;97735.22;;;22.67;100.00
56992;BME280;42885;49.754;18.636;2023-07-30T01:14:20;97724.32;;;22.58;100.00
56992;BME280;42885;49.754;18.636;2023-07-30T01:16:53;97726.72;;;22.48;100.00
56992;BME280;42885;49.754;18.636;2023-07-30T01:19:24;97735.15;;;22.37;100.00
56992;BME280;42885;49.754;18.636;2023-07-30T01:21:55;97735.15;;;22.37;100.00
56992;BME280;42885;49.754;18.636;2023-07-30T01:24:26;97741.78;;;22.26;100.00
56992;BME280;42885;49.754;18.636;2023-07-30T01:27:02;97739.05;;;22.30;100.00
56992;BME280;42885;49.754;18.636;2023-07-30T01:29:45;97741.23;;;22.31;100.00
56992;BME280;42885;49.754;18.636;2023-07-30T01:32:21;97744.13;;;22.25;100.00
56992;BME280;42885;49.754;18.636;2023-07-30T01:34:54;97745.23;;;22.11;100.00
56992;BME280;42885;49.754;18.636;2023-07-30T01:37:41;97748.44;;;22.07;100.00
56992;BME280;42885;49.754;18.636;2023-07-30T01:40:13;97743.92;;;22.07;100.00
56992;BME280;42885;49.754;18.636;2023-07-30T01:42:45;97732.30;;;22.04;100.00
56992;BME280;42885;49.754;18.636;2023-07-30T01:45:19;97736.14;;;22.02;100.00
56992;BME280;42885;49.754;18.636;2023-07-30T01:47:56;97736.66;;;22.01;100.00
56992;BME280;42885;49.754;18.636;2023-07-30T01:50:27;97731.19;;;21.98;100.00
56992;BME280;42885;49.754;18.636;2023-07-30T01:52:59;97725.22;;;21.96;100.00
56992;BME280;42885;49.754;18.636;2023-07-30T01:55:30;97725.28;;;21.88;100.00
56992;BME280;42885;49.754;18.636;2023-07-30T01:58:01;97729.41;;;21.71;100.00
56992;BME280;42885;49.754;18.636;2023-07-30T02:00:41;97722.86;;;21.78;100.00
56992;BME280;42885;49.754;18.636;2023-07-30T02:03:24;97726.91;;;21.70;100.00
56992;BME280;42885;49.754;18.636;2023-07-30T02:05:54;97729.60;;;21.62;100.00
56992;BME280;42885;49.754;18.636;2023-07-30T02:08:25;97731.58;;;21.64;100.00
56992;BME280;42885;49.754;18.636;2023-07-30T02:10:57;97734.53;;;21.73;100.00
56992;BME280;42885;49.754;18.636;2023-07-30T02:13:29;97732.01;;;21.80;100.00
56992;BME280;42885;49.754;18.636;2023-07-30T02:15:59;97730.34;;;22.36;100.00
56992;BME280;42885;49.754;18.636;2023-07-30T02:18:30;97738.88;;;21.66;100.00
56992;BME280;42885;49.754;18.636;2023-07-30T02:21:01;97737.44;;;21.59;100.00
56992;BME280;42885;49.754;18.636;2023-07-30T02:23:32;97736.80;;;21.53;100.00
56992;BME280;42885;49.754;18.636;2023-07-30T02:26:02;97738.28;;;21.59;100.00
56992;BME280;42885;49.754;18.636;2023-07-30T02:28:33;97739.89;;;21.37;100.00
56992;BME280;42885;49.754;18.636;2023-07-30T02:31:10;97750.57;;;21.33;100.00
56992;BME280;42885;49.754;18.636;2023-07-30T02:33:41;97741.94;;;21.31;100.00
56992;BME280;42885;49.754;18.636;2023-07-30T02:36:12;97732.99;;;21.24;100.00
56992;BME280;42885;49.754;18.636;2023-07-30T02:38:44;97733.27;;;21.33;100.00
56992;BME280;42885;49.754;18.636;2023-07-30T02:41:16;97740.20;;;21.42;100.00
56992;BME280;42885;49.754;18.636;2023-07-30T02:43:49;97736.85;;;21.44;100.00
56992;BME280;42885;49.754;18.636;2023-07-30T02:46:20;97740.00;;;21.48;100.00
56992;BME280;42885;49.754;18.636;2023-07-30T02:48:51;97748.03;;;21.67;100.00
56992;BME280;42885;49.754;18.636;2023-07-30T02:51:21;97756.38;;;21.68;100.00
56992;BME280;42885;49.754;18.636;2023-07-30T02:54:03;97755.91;;;21.61;100.00
56992;BME280;42885;49.754;18.636;2023-07-30T02:56:35;97760.11;;;21.51;100.00
56992;BME280;42885;49.754;18.636;2023-07-30T02:59:09;97761.81;;;21.48;100.00
56992;BME280;42885;49.754;18.636;2023-07-30T03:01:40;97764.10;;;21.55;100.00
56992;BME280;42885;49.754;18.636;2023-07-30T03:04:11;97770.93;;;21.22;100.00
56992;BME280;42885;49.754;18.636;2023-07-30T03:06:41;97775.64;;;21.03;100.00
56992;BME280;42885;49.754;18.636;2023-07-30T03:09:16;97768.95;;;21.15;100.00
56992;BME280;42885;49.754;18.636;2023-07-30T03:11:59;97760.09;;;21.27;100.00
56992;BME280;42885;49.754;18.636;2023-07-30T03:14:29;97760.57;;;21.86;100.00
56992;BME280;42885;49.754;18.636;2023-07-30T03:17:02;97761.60;;;21.53;100.00
56992;BME280;42885;49.754;18.636;2023-07-30T03:19:34;97762.94;;;21.53;100.00
56992;BME280;42885;49.754;18.636;2023-07-30T03:22:10;97769.02;;;21.62;100.00
56992;BME280;42885;49.754;18.636;2023-07-30T03:24:41;97767.27;;;21.18;100.00
56992;BME280;42885;49.754;18.636;2023-07-30T03:27:12;97773.19;;;21.33;100.00
56992;BME280;42885;49.754;18.636;2023-07-30T03:29:47;97772.42;;;21.16;100.00
56992;BME280;42885;49.754;18.636;2023-07-30T03:32:18;97774.89;;;21.26;100.00
56992;BME280;42885;49.754;18.636;2023-07-30T03:34:52;97779.56;;;21.24;100.00
56992;BME280;42885;49.754;18.636;2023-07-30T03:37:28;97774.23;;;21.20;100.00
56992;BME280;42885;49.754;18.636;2023-07-30T03:39:59;97766.62;;;21.16;100.00
56992;BME280;42885;49.754;18.636;2023-07-30T03:42:39;97769.27;;;21.48;100.00
56992;BME280;42885;49.754;18.636;2023-07-30T03:45:10;97769.48;;;21.42;100.00
56992;BME280;42885;49.754;18.636;2023-07-30T03:47:46;97767.87;;;21.33;100.00
56992;BME280;42885;49.754;18.636;2023-07-30T03:50:18;97771.81;;;21.41;100.00
56992;BME280;42885;49.754;18.636;2023-07-30T03:52:50;97775.77;;;21.50;100.00
56992;BME280;42885;49.754;18.636;2023-07-30T03:55:27;97779.39;;;21.53;100.00
56992;BME280;42885;49.754;18.636;2023-07-30T03:57:58;97778.59;;;21.48;100.00
56992;BME280;42885;49.754;18.636;2023-07-30T04:00:38;97790.41;;;21.45;100.00
56992;BME280;42885;49.754;18.636;2023-07-30T04:03:09;97794.80;;;21.38;100.00
56992;BME280;42885;49.754;18.636;2023-07-30T04:05:46;97795.24;;;21.50;100.00
56992;BME280;42885;49.754;18.636;2023-07-30T04:08:19;97804.11;;;21.38;100.00
56992;BME280;42885;49.754;18.636;2023-07-30T04:10:50;97799.09;;;22.22;100.00
56992;BME280;42885;49.754;18.636;2023-07-30T04:13:24;97800.77;;;21.40;100.00
56992;BME280;42885;49.754;18.636;2023-07-30T04:15:55;97789.30;;;21.67;100.00
56992;BME280;42885;49.754;18.636;2023-07-30T04:18:28;97790.80;;;21.66;100.00
56992;BME280;42885;49.754;18.636;2023-07-30T04:20:59;97792.98;;;21.62;100.00
56992;BME280;42885;49.754;18.636;2023-07-30T04:23:30;97797.50;;;21.57;100.00
56992;BME280;42885;49.754;18.636;2023-07-30T04:26:01;97795.95;;;21.67;100.00
56992;BME280;42885;49.754;18.636;2023-07-30T04:28:35;97801.73;;;21.83;100.00
56992;BME280;42885;49.754;18.636;2023-07-30T04:31:06;97803.70;;;22.09;100.00
56992;BME280;42885;49.754;18.636;2023-07-30T04:33:37;97804.66;;;22.12;100.00
56992;BME280;42885;49.754;18.636;2023-07-30T04:36:07;97805.59;;;22.23;100.00
56992;BME280;42885;49.754;18.636;2023-07-30T04:38:38;97804.36;;;22.30;100.00
56992;BME280;42885;49.754;18.636;2023-07-30T04:41:09;97808.02;;;22.33;100.00
56992;BME280;42885;49.754;18.636;2023-07-30T04:43:41;97813.91;;;22.24;100.00
56992;BME280;42885;49.754;18.636;2023-07-30T04:46:12;97815.73;;;23.12;100.00
56992;BME280;42885;49.754;18.636;2023-07-30T04:48:49;97815.79;;;22.39;100.00
56992;BME280;42885;49.754;18.636;2023-07-30T04:51:17;97820.70;;;22.50;100.00
56992;BME280;42885;49.754;18.636;2023-07-30T04:53:49;97824.95;;;22.60;100.00
56992;BME280;42885;49.754;18.636;2023-07-30T04:56:26;97828.18;;;22.70;100.00
56992;BME280;42885;49.754;18.636;2023-07-30T04:58:57;97837.86;;;22.71;100.00
56992;BME280;42885;49.754;18.636;2023-07-30T05:01:28;97833.88;;;22.86;100.00
56992;BME280;42885;49.754;18.636;2023-07-30T05:04:02;97829.78;;;22.94;100.00
56992;BME280;42885;49.754;18.636;2023-07-30T05:06:33;97823.83;;;23.03;100.00
56992;BME280;42885;49.754;18.636;2023-07-30T05:09:04;97829.00;;;23.05;100.00
56992;BME280;42885;49.754;18.636;2023-07-30T05:11:35;97828.44;;;23.09;100.00
56992;BME280;42885;49.754;18.636;2023-07-30T05:14:15;97830.42;;;23.27;100.00
56992;BME280;42885;49.754;18.636;2023-07-30T05:16:46;97827.39;;;23.71;100.00
56992;BME280;42885;49.754;18.636;2023-07-30T05:19:19;97832.28;;;23.67;100.00
56992;BME280;42885;49.754;18.636;2023-07-30T05:21:53;97827.52;;;23.47;100.00
56992;BME280;42885;49.754;18.636;2023-07-30T05:24:24;97834.58;;;23.44;100.00
56992;BME280;42885;49.754;18.636;2023-07-30T05:26:55;97836.50;;;23.50;100.00
56992;BME280;42885;49.754;18.636;2023-07-30T05:29:41;97833.52;;;23.60;100.00
56992;BME280;42885;49.754;18.636;2023-07-30T05:32:11;97837.09;;;23.68;100.00
56992;BME280;42885;49.754;18.636;2023-07-30T05:34:46;97846.13;;;23.67;100.00
56992;BME280;42885;49.754;18.636;2023-07-30T05:37:16;97841.24;;;23.70;100.00
56992;BME280;42885;49.754;18.636;2023-07-30T05:39:48;97837.50;;;23.86;100.00
56992;BME280;42885;49.754;18.636;2023-07-30T05:42:19;97831.94;;;24.46;100.00
56992;BME280;42885;49.754;18.636;2023-07-30T05:44:50;97836.75;;;24.08;100.00
56992;BME280;42885;49.754;18.636;2023-07-30T05:47:20;97834.25;;;24.06;100.00
56992;BME280;42885;49.754;18.636;2023-07-30T05:50:09;97834.63;;;24.14;100.00
56992;BME280;42885;49.754;18.636;2023-07-30T05:52:40;97832.71;;;24.29;100.00
56992;BME280;42885;49.754;18.636;2023-07-30T05:55:11;97832.39;;;24.06;99.70
56992;BME280;42885;49.754;18.636;2023-07-30T05:57:44;97836.00;;;23.99;100.00
56992;BME280;42885;49.754;18.636;2023-07-30T06:00:15;97834.48;;;24.11;98.50
56992;BME280;42885;49.754;18.636;2023-07-30T06:02:46;97832.03;;;24.21;99.59
56992;BME280;42885;49.754;18.636;2023-07-30T06:05:25;97835.16;;;24.24;98.65
56992;BME280;42885;49.754;18.636;2023-07-30T06:07:56;97836.44;;;24.57;97.76
56992;BME280;42885;49.754;18.636;2023-07-30T06:10:29;97840.28;;;24.37;92.76
56992;BME280;42885;49.754;18.636;2023-07-30T06:13:00;97827.99;;;24.71;91.65
56992;BME280;42885;49.754;18.636;2023-07-30T06:15:31;97827.13;;;24.92;92.56
56992;BME280;42885;49.754;18.636;2023-07-30T06:18:02;97828.57;;;24.27;90.04
56992;BME280;42885;49.754;18.636;2023-07-30T06:20:42;97823.34;;;24.40;89.24
56992;BME280;42885;49.754;18.636;2023-07-30T06:23:25;97820.81;;;24.82;87.59
56992;BME280;42885;49.754;18.636;2023-07-30T06:25:56;97820.81;;;24.82;87.59
56992;BME280;42885;49.754;18.636;2023-07-30T06:28:27;97823.92;;;25.04;86.25
56992;BME280;42885;49.754;18.636;2023-07-30T06:31:00;97821.75;;;25.27;77.19
56992;BME280;42885;49.754;18.636;2023-07-30T06:33:42;97820.75;;;24.93;79.09
56992;BME280;42885;49.754;18.636;2023-07-30T06:36:13;97818.06;;;25.11;82.36
56992;BME280;42885;49.754;18.636;2023-07-30T06:38:44;97838.08;;;24.80;81.49
56992;BME280;42885;49.754;18.636;2023-07-30T06:41:15;97830.80;;;24.73;80.68
56992;BME280;42885;49.754;18.636;2023-07-30T06:43:46;97832.33;;;24.83;83.68
56992;BME280;42885;49.754;18.636;2023-07-30T06:46:17;97833.13;;;25.12;78.86
56992;BME280;42885;49.754;18.636;2023-07-30T06:48:54;97818.25;;;25.20;78.49
56992;BME280;42885;49.754;18.636;2023-07-30T06:51:28;97830.20;;;25.24;78.16
56992;BME280;42885;49.754;18.636;2023-07-30T06:54:02;97835.03;;;25.67;79.21
56992;BME280;42885;49.754;18.636;2023-07-30T06:56:59;97828.20;;;25.58;79.91
56992;BME280;42885;49.754;18.636;2023-07-30T06:59:33;97831.78;;;25.29;80.15
56992;BME280;42885;49.754;18.636;2023-07-30T07:02:08;97831.68;;;25.34;83.00
56992;BME280;42885;49.754;18.636;2023-07-30T07:04:42;97830.59;;;25.46;77.04
56992;BME280;42885;49.754;18.636;2023-07-30T07:07:13;97827.84;;;25.81;74.83
56992;BME280;42885;49.754;18.636;2023-07-30T07:09:43;97830.64;;;25.77;82.55
56992;BME280;42885;49.754;18.636;2023-07-30T07:12:19;97827.66;;;25.82;78.97
56992;BME280;42885;49.754;18.636;2023-07-30T07:14:50;97826.70;;;25.73;77.71
56992;BME280;42885;49.754;18.636;2023-07-30T07:17:20;97819.55;;;25.55;76.59
56992;BME280;42885;49.754;18.636;2023-07-30T07:19:51;97813.92;;;25.50;74.62
56992;BME280;42885;49.754;18.636;2023-07-30T07:22:26;97815.97;;;25.66;78.65
56992;BME280;42885;49.754;18.636;2023-07-30T07:24:57;97810.77;;;25.82;77.46
56992;BME280;42885;49.754;18.636;2023-07-30T07:27:29;97805.41;;;25.95;73.87
56992;BME280;42885;49.754;18.636;2023-07-30T07:30:10;97812.45;;;26.03;75.51
56992;BME280;42885;49.754;18.636;2023-07-30T07:32:41;97807.97;;;25.79;67.89
56992;BME280;42885;49.754;18.636;2023-07-30T07:35:14;97803.50;;;26.27;66.34
56992;BME280;42885;49.754;18.636;2023-07-30T07:37:51;97813.30;;;26.31;73.55
56992;BME280;42885;49.754;18.636;2023-07-30T07:40:23;97817.75;;;26.34;66.17
56992;BME280;42885;49.754;18.636;2023-07-30T07:42:59;97816.45;;;27.11;71.08
56992;BME280;42885;49.754;18.636;2023-07-30T07:45:41;97818.48;;;26.32;65.89
56992;BME280;42885;49.754;18.636;2023-07-30T07:48:31;97822.72;;;26.37;66.37
56992;BME280;42885;49.754;18.636;2023-07-30T07:51:20;97816.22;;;26.49;71.49
56992;BME280;42885;49.754;18.636;2023-07-30T07:54:06;97827.05;;;26.32;69.17
56992;BME280;42885;49.754;18.636;2023-07-30T07:56:38;97824.67;;;26.39;64.56
56992;BME280;42885;49.754;18.636;2023-07-30T07:59:11;97819.34;;;27.39;66.54
56992;BME280;42885;49.754;18.636;2023-07-30T08:01:48;97817.86;;;26.30;64.76
56992;BME280;42885;49.754;18.636;2023-07-30T08:04:19;97823.23;;;26.30;69.25
56992;BME280;42885;49.754;18.636;2023-07-30T08:06:59;97830.11;;;26.15;67.12
56992;BME280;42885;49.754;18.636;2023-07-30T08:09:31;97831.64;;;26.14;67.51
56992;BME280;42885;49.754;18.636;2023-07-30T08:12:08;97832.72;;;26.39;68.39
56992;BME280;42885;49.754;18.636;2023-07-30T08:14:40;97837.66;;;26.97;64.78
56992;BME280;42885;49.754;18.636;2023-07-30T08:17:10;97843.94;;;27.00;66.63
56992;BME280;42885;49.754;18.636;2023-07-30T08:19:41;97845.01;;;26.65;69.89
56992;BME280;42885;49.754;18.636;2023-07-30T08:22:27;97843.34;;;26.23;68.41
56992;BME280;42885;49.754;18.636;2023-07-30T08:25:17;97847.56;;;26.22;67.46
56992;BME280;42885;49.754;18.636;2023-07-30T08:28:08;97843.95;;;26.73;72.06
56992;BME280;42885;49.754;18.636;2023-07-30T08:31:00;97836.30;;;26.83;66.86
56992;BME280;42885;49.754;18.636;2023-07-30T08:33:36;97836.59;;;27.11;67.41
56992;BME280;42885;49.754;18.636;2023-07-30T08:36:15;97841.23;;;27.13;65.15
56992;BME280;42885;49.754;18.636;2023-07-30T08:39:02;97844.24;;;27.01;65.85
56992;BME280;42885;49.754;18.636;2023-07-30T08:41:47;97847.75;;;27.15;67.38
56992;BME280;42885;49.754;18.636;2023-07-30T08:44:25;97849.32;;;26.73;66.55
56992;BME280;42885;49.754;18.636;2023-07-30T08:47:15;97849.21;;;27.04;68.71
56992;BME280;42885;49.754;18.636;2023-07-30T08:49:50;97854.98;;;27.07;71.04
56992;BME280;42885;49.754;18.636;2023-07-30T08:52:25;97855.61;;;26.96;70.33
56992;BME280;42885;49.754;18.636;2023-07-30T08:55:00;97867.52;;;26.91;71.09
56992;BME280;42885;49.754;18.636;2023-07-30T08:57:52;97863.30;;;27.29;66.85
56992;BME280;42885;49.754;18.636;2023-07-30T09:00:41;97857.39;;;27.36;64.41
56992;BME280;42885;49.754;18.636;2023-07-30T09:03:19;97860.78;;;27.34;65.63
56992;BME280;42885;49.754;18.636;2023-07-30T09:06:08;97857.57;;;27.05;67.07
56992;BME280;42885;49.754;18.636;2023-07-30T09:08:56;97864.83;;;26.91;69.10
56992;BME280;42885;49.754;18.636;2023-07-30T09:11:27;97860.64;;;27.15;71.12
56992;BME280;42885;49.754;18.636;2023-07-30T09:14:02;97858.80;;;27.39;69.11
56992;BME280;42885;49.754;18.636;2023-07-30T09:16:41;97849.00;;;27.35;65.41
56992;BME280;42885;49.754;18.636;2023-07-30T09:19:18;97860.38;;;27.37;66.21
56992;BME280;42885;49.754;18.636;2023-07-30T09:21:50;97849.15;;;27.60;67.44
56992;BME280;42885;49.754;18.636;2023-07-30T09:24:22;97850.00;;;27.18;72.50
56992;BME280;42885;49.754;18.636;2023-07-30T09:27:08;97844.47;;;26.99;73.99
56992;BME280;42885;49.754;18.636;2023-07-30T09:29:58;97844.86;;;27.10;71.72
56992;BME280;42885;49.754;18.636;2023-07-30T09:32:50;97842.19;;;26.96;73.26
56992;BME280;42885;49.754;18.636;2023-07-30T09:35:28;97839.73;;;27.31;70.23
56992;BME280;42885;49.754;18.636;2023-07-30T09:38:10;97844.05;;;26.82;67.93
56992;BME280;42885;49.754;18.636;2023-07-30T09:40:41;97852.31;;;26.87;64.79
56992;BME280;42885;49.754;18.636;2023-07-30T09:43:15;97851.37;;;26.64;66.86
56992;BME280;42885;49.754;18.636;2023-07-30T09:45:49;97853.23;;;26.77;68.83
56992;BME280;42885;49.754;18.636;2023-07-30T09:48:20;97854.34;;;27.05;65.46
56992;BME280;42885;49.754;18.636;2023-07-30T09:51:10;97852.66;;;27.31;66.08
56992;BME280;42885;49.754;18.636;2023-07-30T09:53:42;97844.19;;;27.51;64.03
56992;BME280;42885;49.754;18.636;2023-07-30T09:56:16;97840.80;;;27.16;63.55
56992;BME280;42885;49.754;18.636;2023-07-30T09:58:57;97835.80;;;27.33;65.87
56992;BME280;42885;49.754;18.636;2023-07-30T10:01:28;97843.55;;;28.17;64.98
56992;BME280;42885;49.754;18.636;2023-07-30T10:04:11;97840.29;;;27.10;66.41
56992;BME280;42885;49.754;18.636;2023-07-30T10:06:55;97838.85;;;27.14;73.70
56992;BME280;42885;49.754;18.636;2023-07-30T10:09:30;97838.89;;;26.87;67.54
56992;BME280;42885;49.754;18.636;2023-07-30T10:12:21;97829.75;;;27.45;69.83
56992;BME280;42885;49.754;18.636;2023-07-30T10:14:57;97835.72;;;27.54;64.59
56992;BME280;42885;49.754;18.636;2023-07-30T10:17:47;97828.64;;;27.37;67.49
56992;BME280;42885;49.754;18.636;2023-07-30T10:20:26;97825.76;;;27.38;74.76
56992;BME280;42885;49.754;18.636;2023-07-30T10:23:04;97827.50;;;27.05;67.30
56992;BME280;42885;49.754;18.636;2023-07-30T10:25:46;97826.63;;;27.18;70.32
56992;BME280;42885;49.754;18.636;2023-07-30T10:28:31;97831.37;;;27.30;68.51
56992;BME280;42885;49.754;18.636;2023-07-30T10:31:07;97831.53;;;27.35;71.87
56992;BME280;42885;49.754;18.636;2023-07-30T10:33:51;97832.41;;;27.22;68.74
56992;BME280;42885;49.754;18.636;2023-07-30T10:36:48;97836.51;;;27.68;64.29
56992;BME280;42885;49.754;18.636;2023-07-30T10:39:35;97830.69;;;27.71;64.65
56992;BME280;42885;49.754;18.636;2023-07-30T10:42:01;97826.62;;;27.55;71.31
56992;BME280;42885;49.754;18.636;2023-07-30T10:44:32;97835.06;;;27.35;72.91
56992;BME280;42885;49.754;18.636;2023-07-30T10:47:05;97828.70;;;27.53;71.01
56992;BME280;42885;49.754;18.636;2023-07-30T10:49:54;97823.67;;;27.70;70.07
56992;BME280;42885;49.754;18.636;2023-07-30T10:52:28;97824.61;;;27.07;69.24
56992;BME280;42885;49.754;18.636;2023-07-30T10:55:01;97824.52;;;27.41;70.58
56992;BME280;42885;49.754;18.636;2023-07-30T10:57:35;97829.29;;;27.32;70.85
56992;BME280;42885;49.754;18.636;2023-07-30T11:00:18;97830.66;;;27.25;70.23
56992;BME280;42885;49.754;18.636;2023-07-30T11:02:55;97822.33;;;27.40;70.34
56992;BME280;42885;49.754;18.636;2023-07-30T11:05:26;97822.84;;;27.17;71.34
56992;BME280;42885;49.754;18.636;2023-07-30T11:07:59;97825.99;;;27.30;71.17
56992;BME280;42885;49.754;18.636;2023-07-30T11:10:48;97828.64;;;27.07;72.36
56992;BME280;42885;49.754;18.636;2023-07-30T11:13:22;97821.92;;;27.07;73.05
56992;BME280;42885;49.754;18.636;2023-07-30T11:15:56;97823.48;;;26.85;73.03
56992;BME280;42885;49.754;18.636;2023-07-30T11:18:34;97829.17;;;27.00;73.36
56992;BME280;42885;49.754;18.636;2023-07-30T11:21:10;97827.73;;;26.77;74.08
56992;BME280;42885;49.754;18.636;2023-07-30T11:23:44;97829.82;;;26.68;72.71
56992;BME280;42885;49.754;18.636;2023-07-30T11:26:34;97828.36;;;26.72;73.75
56992;BME280;42885;49.754;18.636;2023-07-30T11:29:18;97830.13;;;26.69;73.17
56992;BME280;42885;49.754;18.636;2023-07-30T11:32:00;97833.30;;;27.02;72.80
56992;BME280;42885;49.754;18.636;2023-07-30T11:34:51;97823.30;;;27.00;73.86
56992;BME280;42885;49.754;18.636;2023-07-30T11:37:42;97820.20;;;26.97;75.47
56992;BME280;42885;49.754;18.636;2023-07-30T11:40:20;97820.92;;;26.81;72.81
56992;BME280;42885;49.754;18.636;2023-07-30T11:43:10;97829.28;;;26.82;75.39
56992;BME280;42885;49.754;18.636;2023-07-30T11:45:46;97830.00;;;26.93;72.38
56992;BME280;42885;49.754;18.636;2023-07-30T11:48:33;97837.55;;;26.74;73.56
56992;BME280;42885;49.754;18.636;2023-07-30T11:51:22;97837.00;;;27.08;73.13
56992;BME280;42885;49.754;18.636;2023-07-30T11:53:58;97835.58;;;26.78;70.17
56992;BME280;42885;49.754;18.636;2023-07-30T11:56:31;97833.91;;;27.04;70.48
56992;BME280;42885;49.754;18.636;2023-07-30T11:59:21;97833.75;;;27.29;69.97
56992;BME280;42885;49.754;18.636;2023-07-30T12:02:06;97836.52;;;26.95;79.87
56992;BME280;42885;49.754;18.636;2023-07-30T12:04:53;97832.72;;;26.73;71.44
56992;BME280;42885;49.754;18.636;2023-07-30T12:07:42;97826.26;;;27.15;73.22
56992;BME280;42885;49.754;18.636;2023-07-30T12:10:14;97829.19;;;26.86;74.55
56992;BME280;42885;49.754;18.636;2023-07-30T12:12:51;97827.60;;;27.08;71.46
56992;BME280;42885;49.754;18.636;2023-07-30T12:15:29;97828.56;;;26.98;69.83
56992;BME280;42885;49.754;18.636;2023-07-30T12:18:00;97827.56;;;26.51;72.41
56992;BME280;42885;49.754;18.636;2023-07-30T12:20:31;97830.75;;;26.64;69.70
56992;BME280;42885;49.754;18.636;2023-07-30T12:23:02;97826.09;;;26.69;71.75
56992;BME280;42885;49.754;18.636;2023-07-30T12:25:38;97819.67;;;27.04;68.97
56992;BME280;42885;49.754;18.636;2023-07-30T12:28:18;97811.53;;;26.81;69.32
56992;BME280;42885;49.754;18.636;2023-07-30T12:30:49;97813.59;;;26.92;71.30
56992;BME280;42885;49.754;18.636;2023-07-30T12:33:20;97810.48;;;27.32;68.72
56992;BME280;42885;49.754;18.636;2023-07-30T12:35:52;97803.50;;;27.24;71.59
56992;BME280;42885;49.754;18.636;2023-07-30T12:38:27;97809.49;;;26.70;71.00
56992;BME280;42885;49.754;18.636;2023-07-30T12:40:57;97813.44;;;27.10;70.90
56992;BME280;42885;49.754;18.636;2023-07-30T12:43:32;97811.32;;;27.62;69.46
56992;BME280;42885;49.754;18.636;2023-07-30T12:46:03;97814.17;;;27.38;70.98
56992;BME280;42885;49.754;18.636;2023-07-30T12:48:53;97810.38;;;27.36;69.14
56992;BME280;42885;49.754;18.636;2023-07-30T12:51:24;97805.08;;;27.09;68.53
56992;BME280;42885;49.754;18.636;2023-07-30T12:54:04;97800.73;;;27.44;70.33
56992;BME280;42885;49.754;18.636;2023-07-30T12:56:35;97806.06;;;27.51;64.25
56992;BME280;42885;49.754;18.636;2023-07-30T12:59:15;97803.09;;;27.43;60.97
56992;BME280;42885;49.754;18.636;2023-07-30T13:02:05;97794.82;;;27.45;63.26
56992;BME280;42885;49.754;18.636;2023-07-30T13:04:36;97794.22;;;27.43;62.28
56992;BME280;42885;49.754;18.636;2023-07-30T13:07:26;97792.99;;;27.84;59.53
56992;BME280;42885;49.754;18.636;2023-07-30T13:10:08;97794.05;;;27.60;61.91
56992;BME280;42885;49.754;18.636;2023-07-30T13:12:44;97793.48;;;28.16;63.34
56992;BME280;42885;49.754;18.636;2023-07-30T13:15:28;97786.83;;;29.13;60.12
56992;BME280;42885;49.754;18.636;2023-07-30T13:18:03;97782.02;;;29.25;58.77
56992;BME280;42885;49.754;18.636;2023-07-30T13:20:34;97799.22;;;28.26;60.49
56992;BME280;42885;49.754;18.636;2023-07-30T13:23:08;97790.82;;;28.32;64.48
56992;BME280;42885;49.754;18.636;2023-07-30T13:25:46;97795.95;;;28.50;63.39
56992;BME280;42885;49.754;18.636;2023-07-30T13:28:23;97798.51;;;28.28;61.23
56992;BME280;42885;49.754;18.636;2023-07-30T13:30:55;97802.83;;;27.97;62.59